NCAR-RAP Real-Time Weather Data

Output produced by METARs form (08 May 2021  00:33 UTC)
found at http://weather.rap.ucar.edu/surface/
 
KSLK 072351Z AUTO 05004KT 10SM BKN075 OVC090 09/00 A2985 RMK AO2 SLP118 T00940000 10122 20094 56001
KSLK 072251Z AUTO 02003KT 10SM OVC075 11/M02 A2985 RMK AO2 SLP118 T01111017
KSLK 072151Z AUTO 12007KT 10SM OVC080 12/M03 A2985 RMK AO2 SLP122 T01171028
KSLK 072055Z AUTO 10005KT 10SM SCT060 BKN080 12/M03 A2985 RMK AO2 SLP122 T01171028 56011
KSLK 071951Z AUTO 06005KT 10SM OVC070 11/M03 A2986 RMK AO2 SLP125 T01111028
KSLK 071851Z AUTO 00000KT 10SM BKN060 OVC070 12/M03 A2987 RMK AO2 SLP127 T01171033
KSLK 071751Z AUTO 20009KT 10SM OVC070 12/M03 A2989 RMK AO2 SLP131 T01171033 10117 20033 58013
KSLK 071651Z AUTO VRB04KT 10SM BKN060 OVC070 11/M04 A2990 RMK AO2 SLP135 T01111039
KSLK 071551Z AUTO 24007KT 10SM OVC085 10/M03 A2992 RMK AO2 SLP145 T01001033
KSLK 071451Z AUTO 18004KT 10SM OVC085 10/M04 A2993 RMK AO2 SLP144 T01001044 56006
KSLK 071351Z AUTO VRB03KT 10SM CLR 09/M03 A2993 RMK AO2 SLP145 T00941033
KSLK 071251Z AUTO 10003KT 10SM OVC120 08/M01 A2994 RMK AO2 SLP149 T00831011
KSLK 071151Z AUTO 00000KT 10SM BKN090 03/M01 A2994 RMK AO2 SLP151 T00281006 10028 21050 53002
KSLK 071051Z AUTO 00000KT 10SM OVC095 M02/M03 A2995 RMK AO2 SLP153 T10171028
KSLK 070951Z AUTO 00000KT 10SM BKN100 M04/M06 A2994 RMK AO2 SLP152 T10441061
KSLK 070851Z AUTO 00000KT 10SM CLR M04/M05 A2994 RMK AO2 SLP153 T10441050 55004